Time;durP1;ratioP1;P1;durP2;ratioP2;P2;SDS_P1;SDS_P2;PMS_P1;PMS_P2;Temp;Humidity;BMP_temperature;BMP_pressure;BME280_temperature;BME280_humidity;BME280_pressure;Samples;Min_cycle;Max_cycle;Signal;HPM_P1;HPM_P2
2021/05/13 00:01:50;;;;;;;6.28;2.30;;;16.70;88.00;;;;;;11851261;28;20054;-77
2021/05/13 00:07:37;;;;;;;6.40;1.98;;;16.70;88.20;;;;;;11855600;28;20054;-77
2021/05/13 00:13:24;;;;;;;7.63;2.17;;;16.70;88.30;;;;;;11856989;28;20058;-76
2021/05/13 00:19:13;;;;;;;6.97;2.17;;;16.60;90.20;;;;;;11845203;28;20058;-76
2021/05/13 00:25:00;;;;;;;5.40;2.03;;;16.60;91.20;;;;;;11849442;28;20050;-77
2021/05/13 00:30:47;;;;;;;3.63;1.75;;;16.60;91.60;;;;;;11853257;28;20046;-76
2021/05/13 00:36:35;;;;;;;7.35;2.50;;;16.60;91.90;;;;;;11851593;28;20567;-77
2021/05/13 00:42:22;;;;;;;6.40;2.38;;;16.60;92.50;;;;;;11843319;28;20054;-76
2021/05/13 00:48:14;;;;;;;6.88;3.00;;;16.60;92.80;;;;;;11853216;28;20054;-76
2021/05/13 00:54:01;;;;;;;9.35;2.25;;;16.60;94.80;;;;;;11851055;28;20055;-76
2021/05/13 00:59:53;;;;;;;6.55;2.60;;;16.40;95.70;;;;;;11853767;28;20053;-76
2021/05/13 01:05:40;;;;;;;7.00;2.13;;;16.00;97.40;;;;;;11848269;28;20054;-76
2021/05/13 01:11:26;;;;;;;6.22;2.22;;;15.80;98.80;;;;;;11847234;28;20054;-75
2021/05/13 01:17:18;;;;;;;4.80;2.05;;;15.70;99.90;;;;;;11858457;28;20397;-75
2021/05/13 01:23:08;;;;;;;4.95;2.30;;;15.80;99.90;;;;;;11847222;28;20527;-75
2021/05/13 01:28:54;;;;;;;6.68;3.00;;;15.90;99.90;;;;;;11844745;28;21469;-76
2021/05/13 06:21:28;;;;;;;7.35;2.58;;;11.60;99.90;;;;;;12078455;27;20369;-77
2021/05/13 06:27:14;;;;;;;5.93;1.90;;;12.10;99.90;;;;;;12048618;28;20055;-76
2021/05/13 06:33:01;;;;;;;3.28;1.60;;;12.80;99.90;;;;;;12039101;28;20506;-76
2021/05/13 06:38:48;;;;;;;3.70;1.80;;;13.10;99.90;;;;;;12031373;28;20048;-76
2021/05/13 06:44:34;;;;;;;6.28;1.60;;;13.70;99.90;;;;;;12062636;28;20493;-76
2021/05/13 06:50:21;;;;;;;7.03;1.80;;;14.10;99.90;;;;;;12047226;28;20076;-76
2021/05/13 06:56:08;;;;;;;5.07;1.70;;;14.10;99.90;;;;;;12053249;28;20479;-76
2021/05/13 07:01:55;;;;;;;6.55;1.83;;;14.30;99.90;;;;;;12074062;28;20064;-76
2021/05/13 07:07:41;;;;;;;2.50;1.73;;;14.40;99.90;;;;;;12068825;28;20755;-76
2021/05/13 07:13:29;;;;;;;6.28;1.98;;;14.30;99.90;;;;;;12078123;28;20048;-76
2021/05/13 07:19:15;;;;;;;3.65;1.85;;;14.50;99.90;;;;;;12074934;28;20044;-76
2021/05/13 07:25:01;;;;;;;4.88;2.40;;;14.60;99.90;;;;;;12078311;28;20053;-80
2021/05/13 07:30:49;;;;;;;6.68;1.83;;;14.50;99.90;;;;;;12030852;28;20099;-81
2021/05/13 07:36:35;;;;;;;7.07;1.98;;;14.40;99.90;;;;;;12002976;28;20808;-79
2021/05/13 07:42:21;;;;;;;6.38;1.88;;;14.70;99.90;;;;;;12027119;28;20466;-81
2021/05/13 07:48:09;;;;;;;6.97;2.05;;;15.10;99.90;;;;;;11998268;28;20748;-80
2021/05/13 07:53:56;;;;;;;5.50;1.88;;;15.20;99.90;;;;;;12005842;28;20053;-80
2021/05/13 07:59:42;;;;;;;5.38;1.92;;;15.30;99.90;;;;;;12006207;28;20495;-79
2021/05/13 08:05:29;;;;;;;3.28;1.50;;;15.40;99.90;;;;;;12001468;28;20523;-80
2021/05/13 08:11:16;;;;;;;7.40;1.60;;;15.40;99.90;;;;;;12008240;28;20045;-81
2021/05/13 08:17:02;;;;;;;3.10;1.42;;;15.40;99.90;;;;;;12010574;28;20049;-80
2021/05/13 08:22:50;;;;;;;6.53;1.50;;;15.60;99.90;;;;;;12003933;28;20053;-79
2021/05/13 08:28:36;;;;;;;8.70;1.73;;;15.10;99.90;;;;;;12044256;28;20058;-79
2021/05/13 08:34:22;;;;;;;3.17;1.38;;;15.20;99.90;;;;;;12013390;28;20045;-79
2021/05/13 08:40:11;;;;;;;4.13;1.30;;;15.30;99.90;;;;;;11991009;28;20063;-78
2021/05/13 08:45:58;;;;;;;3.72;1.27;;;15.20;99.90;;;;;;12032737;28;20075;-78
2021/05/13 08:51:45;;;;;;;3.33;1.25;;;15.20;99.90;;;;;;12022655;28;20055;-79
2021/05/13 08:57:32;;;;;;;4.45;1.42;;;15.50;99.90;;;;;;12006409;28;20051;-79
2021/05/13 09:03:32;;;;;;;5.88;1.45;;;15.50;99.90;;;;;;12021006;28;20047;-81
2021/05/13 09:09:20;;;;;;;6.10;1.55;;;16.00;99.90;;;;;;12003801;28;20057;-78
2021/05/13 09:15:10;;;;;;;2.83;1.15;;;16.30;99.90;;;;;;12039501;28;20527;-77
2021/05/13 09:21:03;;;;;;;4.30;1.27;;;16.40;99.90;;;;;;11991940;28;20217;-77
2021/05/13 09:26:50;;;;;;;2.05;1.15;;;16.40;99.90;;;;;;11997459;28;20051;-78
2021/05/13 09:32:38;;;;;;;4.90;1.65;;;16.40;99.90;;;;;;12022999;28;20053;-80
2021/05/13 09:38:34;;;;;;;5.43;1.17;;;16.50;99.90;;;;;;12001996;28;20138;-81
2021/05/13 09:44:30;;;;;;;5.60;1.45;;;16.40;99.90;;;;;;11997094;28;20056;-83
2021/05/13 09:50:22;;;;;;;4.82;1.48;;;16.50;99.90;;;;;;11988031;28;20049;-80
2021/05/13 09:56:25;;;;;;;2.45;1.40;;;16.80;99.90;;;;;;11984721;28;20053;-79
2021/05/13 10:02:12;;;;;;;5.25;1.42;;;16.70;99.90;;;;;;11993282;28;20427;-80
2021/05/13 10:07:59;;;;;;;6.25;1.63;;;16.70;98.90;;;;;;12017183;28;20057;-80
2021/05/13 10:13:47;;;;;;;5.97;1.77;;;16.50;99.90;;;;;;12035366;28;20060;-81
2021/05/13 10:19:38;;;;;;;5.28;1.50;;;16.60;99.90;;;;;;12036887;28;20086;-80
2021/05/13 10:25:27;;;;;;;2.85;1.98;;;16.80;98.20;;;;;;12018518;28;20045;-78
2021/05/13 10:31:13;;;;;;;6.22;2.08;;;17.10;97.40;;;;;;12000825;28;20061;-79
2021/05/13 10:37:09;;;;;;;7.50;1.27;;;16.90;97.70;;;;;;11990832;28;20125;-78
2021/05/13 10:43:04;;;;;;;2.08;1.30;;;17.10;95.40;;;;;;12054532;28;20134;-80
2021/05/13 10:48:51;;;;;;;4.45;1.40;;;17.00;96.20;;;;;;12025660;28;20076;-80
2021/05/13 10:54:47;;;;;;;6.65;1.98;;;17.10;96.10;;;;;;12004245;28;20049;-80
2021/05/13 11:00:34;;;;;;;5.68;1.40;;;17.10;96.30;;;;;;11999992;28;20045;-80
2021/05/13 11:06:42;;;;;;;7.05;1.70;;;17.70;92.80;;;;;;12036458;28;20519;-79
2021/05/13 11:12:37;;;;;;;6.95;2.60;;;17.50;94.00;;;;;;11989419;28;20073;-82
2021/05/13 11:18:27;;;;;;;5.82;2.20;;;17.20;94.60;;;;;;12002292;28;20625;-81
2021/05/13 11:24:13;;;;;;;5.32;1.73;;;17.40;93.90;;;;;;12025339;28;20060;-81
2021/05/13 11:29:59;;;;;;;3.00;1.40;;;17.20;93.50;;;;;;12017616;28;21383;-80
2021/05/13 11:35:47;;;;;;;4.10;1.30;;;17.00;92.90;;;;;;12036582;28;20056;-80
2021/05/13 11:41:34;;;;;;;5.03;1.45;;;17.10;93.80;;;;;;11992522;28;20147;-81
2021/05/13 11:47:30;;;;;;;2.92;1.15;;;17.20;94.40;;;;;;11996268;28;20048;-82
2021/05/13 11:53:19;;;;;;;4.82;1.02;;;16.90;95.20;;;;;;12029896;28;20045;-76
2021/05/13 11:59:10;;;;;;;5.97;1.15;;;17.20;93.10;;;;;;12002550;28;20118;-77
2021/05/13 12:05:04;;;;;;;2.70;1.00;;;17.60;92.90;;;;;;11993923;28;20060;-79
2021/05/13 12:10:52;;;;;;;3.20;1.10;;;18.00;93.00;;;;;;12001554;28;20056;-78
2021/05/13 12:16:42;;;;;;;3.17;1.00;;;18.40;91.70;;;;;;12014236;28;20052;-82
2021/05/13 12:22:30;;;;;;;4.80;0.85;;;18.80;89.10;;;;;;12072564;28;20097;-79
2021/05/13 12:28:18;;;;;;;3.88;1.10;;;18.90;87.70;;;;;;11999096;28;20053;-77
2021/05/13 12:34:06;;;;;;;1.17;0.80;;;19.20;84.20;;;;;;11993251;28;20045;-76
2021/05/13 12:39:53;;;;;;;4.10;0.65;;;18.80;82.40;;;;;;11996763;28;20064;-77
2021/05/13 12:45:46;;;;;;;3.55;0.88;;;18.90;81.30;;;;;;12009190;28;20424;-82
2021/05/13 12:51:33;;;;;;;1.45;0.70;;;18.60;81.00;;;;;;12040446;28;20055;-81
2021/05/13 12:57:20;;;;;;;1.75;0.57;;;18.40;81.00;;;;;;12000482;28;20052;-78
2021/05/13 13:03:13;;;;;;;3.13;0.60;;;18.30;83.30;;;;;;11997287;28;20555;-76
2021/05/13 13:09:00;;;;;;;2.73;1.03;;;18.90;81.80;;;;;;12003595;28;20048;-77
2021/05/13 13:14:47;;;;;;;1.25;0.70;;;19.30;76.10;;;;;;11991368;28;20045;-76
2021/05/13 13:20:35;;;;;;;2.78;0.70;;;20.00;76.50;;;;;;11996817;28;20059;-76
2021/05/13 13:26:28;;;;;;;2.92;0.90;;;20.10;75.60;;;;;;12011865;28;20055;-76
2021/05/13 13:32:15;;;;;;;2.03;0.65;;;20.60;73.80;;;;;;12025357;28;20090;-77
2021/05/13 13:38:02;;;;;;;3.13;0.98;;;20.90;73.40;;;;;;12028930;28;20048;-77
2021/05/13 13:43:48;;;;;;;2.45;0.52;;;21.00;72.10;;;;;;12062374;28;20060;-77
2021/05/13 13:49:35;;;;;;;1.83;0.55;;;20.60;70.00;;;;;;12020680;28;20044;-76
2021/05/13 13:55:22;;;;;;;2.20;0.90;;;20.30;69.30;;;;;;11992372;28;20420;-76
2021/05/13 14:01:08;;;;;;;2.63;2.10;;;19.70;71.40;;;;;;11993010;28;20511;-77
2021/05/13 14:06:55;;;;;;;0.95;0.80;;;19.40;74.30;;;;;;12012938;28;20499;-77
2021/05/13 14:12:43;;;;;;;2.92;0.70;;;19.00;76.80;;;;;;12043598;28;20048;-77
2021/05/13 14:18:30;;;;;;;2.35;0.70;;;19.10;78.90;;;;;;12039510;28;20075;-77
2021/05/13 14:24:17;;;;;;;2.05;0.90;;;19.40;77.60;;;;;;12021659;28;20812;-77
2021/05/13 14:30:11;;;;;;;2.20;0.60;;;20.10;79.30;;;;;;12037398;28;20545;-78
2021/05/13 14:35:58;;;;;;;1.98;0.55;;;20.40;76.90;;;;;;12019521;28;20570;-77
2021/05/13 14:41:45;;;;;;;2.42;0.85;;;20.40;75.30;;;;;;11997497;28;20060;-77
2021/05/13 14:47:32;;;;;;;4.60;1.05;;;20.60;74.60;;;;;;12011573;28;20464;-76
2021/05/13 14:53:18;;;;;;;3.00;1.40;;;20.60;75.90;;;;;;12044930;28;20130;-76
2021/05/13 14:59:06;;;;;;;18.55;12.48;;;20.80;73.90;;;;;;12003936;28;20064;-78
2021/05/13 15:04:54;;;;;;;0.93;0.60;;;20.90;71.20;;;;;;12005760;28;20072;-78
2021/05/13 15:10:40;;;;;;;3.50;0.85;;;20.70;68.00;;;;;;12026963;28;20061;-78
2021/05/13 15:16:26;;;;;;;2.38;0.68;;;20.50;68.80;;;;;;12002649;28;20075;-78
2021/05/13 15:22:13;;;;;;;2.78;0.70;;;20.70;67.50;;;;;;12034472;28;20053;-78
2021/05/13 15:28:04;;;;;;;1.95;0.63;;;21.00;69.20;;;;;;11995050;28;20512;-78
2021/05/13 15:33:50;;;;;;;1.40;0.60;;;20.90;67.50;;;;;;12023054;28;20123;-78
2021/05/13 15:39:37;;;;;;;1.55;0.57;;;20.20;70.10;;;;;;12032926;28;20052;-77
2021/05/13 15:45:24;;;;;;;1.63;1.10;;;19.80;71.80;;;;;;12001177;28;20052;-78
2021/05/13 15:51:10;;;;;;;1.83;0.70;;;19.50;73.70;;;;;;11990421;28;20053;-78
2021/05/13 15:56:58;;;;;;;1.20;0.55;;;19.20;76.50;;;;;;12022958;28;20045;-77
2021/05/13 16:02:44;;;;;;;2.20;0.63;;;18.80;79.40;;;;;;12020156;28;20065;-77
2021/05/13 16:08:30;;;;;;;2.30;0.50;;;19.60;81.10;;;;;;12026333;28;20048;-78
2021/05/13 16:14:17;;;;;;;2.00;0.60;;;22.80;71.50;;;;;;12050588;28;20056;-78
2021/05/13 16:20:05;;;;;;;3.08;0.52;;;24.30;62.30;;;;;;11983511;28;20052;-78
2021/05/13 16:25:51;;;;;;;2.00;0.40;;;22.40;67.10;;;;;;11995726;28;20048;-77
2021/05/13 16:31:39;;;;;;;0.57;0.30;;;21.20;77.30;;;;;;11999126;28;20064;-78
2021/05/13 16:37:25;;;;;;;1.23;0.82;;;22.60;80.10;;;;;;12050882;28;20048;-78
2021/05/13 16:43:13;;;;;;;3.28;0.55;;;23.70;69.50;;;;;;11997129;28;20052;-78
2021/05/13 16:49:00;;;;;;;1.52;0.28;;;25.10;68.60;;;;;;11990872;28;20052;-79
2021/05/13 16:54:46;;;;;;;0.82;0.50;;;28.80;57.30;;;;;;11983583;28;20076;-78
2021/05/13 17:00:33;;;;;;;1.48;0.47;;;30.10;52.80;;;;;;12021624;28;20962;-77
2021/05/13 17:06:20;;;;;;;0.65;0.38;;;31.60;48.90;;;;;;11989624;28;20492;-77
2021/05/13 17:12:07;;;;;;;1.30;0.63;;;31.80;44.20;;;;;;11988239;28;20053;-79
2021/05/13 17:17:53;;;;;;;1.23;0.80;;;27.90;51.10;;;;;;12002472;28;20045;-78
2021/05/13 17:23:41;;;;;;;2.05;0.80;;;24.80;55.40;;;;;;12044973;28;20045;-78
2021/05/13 17:29:27;;;;;;;0.95;0.60;;;22.80;59.80;;;;;;11996814;28;20060;-76
2021/05/13 17:35:14;;;;;;;1.65;0.50;;;21.60;64.80;;;;;;12028781;28;20150;-74
2021/05/13 17:41:04;;;;;;;1.02;0.43;;;21.00;67.80;;;;;;12010639;28;20053;-74
2021/05/13 17:46:52;;;;;;;5.97;0.55;;;20.40;69.90;;;;;;12031006;28;20102;-74
2021/05/13 17:52:38;;;;;;;1.08;0.50;;;20.00;72.30;;;;;;12014732;28;20079;-76
2021/05/13 17:58:25;;;;;;;3.17;0.80;;;19.70;75.70;;;;;;11989112;28;21479;-76
2021/05/13 18:04:12;;;;;;;3.80;1.40;;;19.50;75.90;;;;;;11994741;28;20118;-74
2021/05/13 18:09:58;;;;;;;2.45;1.17;;;19.40;77.90;;;;;;12037148;28;20062;-74
2021/05/13 18:15:46;;;;;;;3.53;1.27;;;21.10;75.40;;;;;;11996118;28;20049;-75
2021/05/13 18:21:34;;;;;;;1.63;0.85;;;22.80;69.30;;;;;;11980118;28;20060;-75
2021/05/13 18:27:21;;;;;;;1.00;0.80;;;23.30;67.00;;;;;;11987491;28;20068;-82
2021/05/13 18:33:08;;;;;;;1.35;0.65;;;22.30;68.80;;;;;;12049139;28;20044;-75
2021/05/13 18:38:55;;;;;;;1.73;0.77;;;21.10;73.30;;;;;;12014832;28;20056;-76
2021/05/13 18:44:41;;;;;;;5.82;3.40;;;20.20;75.80;;;;;;12034763;28;20084;-75
2021/05/13 18:50:29;;;;;;;1.92;1.05;;;19.60;77.20;;;;;;12001519;28;20060;-75
2021/05/13 18:56:20;;;;;;;1.27;0.98;;;19.10;79.20;;;;;;12015123;28;20052;-74
2021/05/13 19:02:06;;;;;;;2.13;0.80;;;18.80;80.70;;;;;;11990436;28;20140;-73
2021/05/13 19:07:53;;;;;;;1.65;0.82;;;18.60;81.80;;;;;;12014479;28;21267;-82
2021/05/13 19:13:40;;;;;;;2.67;0.90;;;18.50;83.50;;;;;;11986989;28;20044;-80
2021/05/13 19:19:26;;;;;;;4.15;0.90;;;18.40;84.60;;;;;;12053644;28;21027;-81
2021/05/13 19:25:15;;;;;;;0.70;0.60;;;18.20;86.00;;;;;;11990193;28;20053;-81
2021/05/13 19:31:11;;;;;;;2.70;1.08;;;18.10;87.50;;;;;;12041492;28;20782;-81
2021/05/13 19:36:59;;;;;;;1.83;0.90;;;18.00;88.90;;;;;;12032289;28;20052;-81
2021/05/13 19:42:46;;;;;;;2.78;1.45;;;17.90;89.90;;;;;;11993720;28;20052;-81
2021/05/13 19:48:33;;;;;;;2.55;1.30;;;17.90;90.30;;;;;;12031485;28;20061;-80
2021/05/13 19:54:19;;;;;;;3.08;1.08;;;17.80;90.60;;;;;;12011421;28;20052;-78
2021/05/13 20:00:09;;;;;;;1.48;0.90;;;17.70;90.80;;;;;;12028448;28;20060;-83
2021/05/13 20:06:05;;;;;;;1.55;0.88;;;17.60;91.40;;;;;;11996412;28;20048;-82
2021/05/13 20:11:53;;;;;;;1.23;0.93;;;17.50;91.50;;;;;;12015057;28;20058;-82
2021/05/13 20:17:41;;;;;;;2.55;0.80;;;17.30;91.80;;;;;;12024877;28;20045;-82
2021/05/13 20:23:28;;;;;;;1.85;0.80;;;17.20;92.00;;;;;;12007988;28;20403;-83
2021/05/13 20:29:16;;;;;;;1.73;0.80;;;17.00;91.90;;;;;;11991493;28;20072;-83
2021/05/13 20:35:04;;;;;;;4.35;0.80;;;17.00;91.90;;;;;;11983480;28;20907;-75
2021/05/13 20:40:52;;;;;;;2.17;0.73;;;17.10;91.80;;;;;;11990472;28;20404;-75
2021/05/13 20:46:41;;;;;;;1.85;0.90;;;17.00;92.10;;;;;;12017157;28;20147;-75
2021/05/13 20:58:54;;;;;;;2.55;0.85;;;17.00;92.20;;;;;;12136709;27;20369;-74
2021/05/13 21:04:43;;;;;;;4.75;1.08;;;17.00;92.30;;;;;;12086593;28;20052;-74
2021/05/13 21:10:35;;;;;;;2.70;1.00;;;17.10;92.20;;;;;;12092650;27;20044;-73
2021/05/13 21:22:34;;;;;;;5.80;2.40;;;17.10;92.20;;;;;;12095219;28;20075;-75
2021/05/13 21:28:25;;;;;;;3.08;1.10;;;17.10;92.20;;;;;;12087020;27;20055;-75
2021/05/13 21:34:13;;;;;;;1.23;0.65;;;17.00;92.50;;;;;;12077989;27;20044;-76
2021/05/13 21:39:59;;;;;;;2.78;0.90;;;17.10;92.30;;;;;;12086327;28;20045;-74
2021/05/13 21:45:45;;;;;;;4.10;1.10;;;17.00;92.70;;;;;;12086347;28;20051;-79
2021/05/13 21:51:33;;;;;;;1.98;0.93;;;16.90;92.80;;;;;;12061808;27;20044;-78
2021/05/13 21:57:19;;;;;;;3.67;1.10;;;16.90;92.90;;;;;;12045466;27;20052;-76
2021/05/13 22:03:05;;;;;;;1.95;0.98;;;16.80;93.30;;;;;;12082383;28;20052;-78
2021/05/13 22:08:53;;;;;;;4.55;1.05;;;16.70;93.20;;;;;;12029584;28;20872;-78
2021/05/13 22:14:39;;;;;;;1.70;1.00;;;16.60;93.30;;;;;;12053145;28;20056;-79
2021/05/13 22:20:26;;;;;;;4.15;0.88;;;16.50;93.50;;;;;;12050930;28;20056;-78
2021/05/13 22:26:16;;;;;;;2.33;1.02;;;16.40;93.90;;;;;;12044666;28;20044;-74
2021/05/13 22:32:03;;;;;;;3.22;1.10;;;16.40;94.20;;;;;;12049926;28;20110;-77
2021/05/13 22:37:50;;;;;;;2.63;0.90;;;16.30;94.10;;;;;;12047995;28;20118;-78
2021/05/13 22:43:37;;;;;;;2.13;0.90;;;16.30;94.10;;;;;;12045412;28;20048;-79
2021/05/13 22:49:26;;;;;;;2.88;1.10;;;16.20;94.40;;;;;;12049331;28;20052;-79
2021/05/13 22:55:17;;;;;;;3.20;1.50;;;16.10;94.70;;;;;;12047527;28;20504;-78
2021/05/13 23:01:04;;;;;;;3.70;1.50;;;16.10;94.70;;;;;;12046182;28;20053;-76
2021/05/13 23:06:51;;;;;;;9.75;4.35;;;16.00;94.90;;;;;;12054409;28;20089;-75
2021/05/13 23:12:38;;;;;;;3.47;1.58;;;16.00;94.90;;;;;;12038055;28;20045;-75
2021/05/13 23:18:25;;;;;;;3.28;1.80;;;16.00;94.80;;;;;;12014828;28;20061;-76
2021/05/13 23:24:12;;;;;;;1.92;1.20;;;15.90;95.20;;;;;;12051590;28;20693;-75
2021/05/13 23:29:58;;;;;;;2.88;0.82;;;15.90;95.00;;;;;;12023877;28;20048;-80
2021/05/13 23:35:46;;;;;;;1.63;1.00;;;15.80;94.60;;;;;;12042659;28;20058;-80
2021/05/13 23:41:33;;;;;;;4.30;1.88;;;15.80;94.90;;;;;;12014178;28;20052;-79
2021/05/13 23:47:19;;;;;;;1.63;1.00;;;15.70;95.20;;;;;;12028752;28;20056;-80
2021/05/13 23:53:06;;;;;;;8.35;1.27;;;15.70;95.00;;;;;;12018431;28;20404;-75
2021/05/13 23:58:53;;;;;;;4.85;1.08;;;15.60;95.10;;;;;;12022215;28;20053;-75
